Terminal Aerodrome Forecast
Issued by NWS

Home | Current Version | Previous Version | Text Only | Print | Product List | Glossary On
Versions: 1 2 3 4 5 6 7 8 9 10 11 12 13 14 15 16 17 18 19 20 21 22 23
000
FTUS44 KOUN 312329
TAFHBR
TAF
KHBR 312329Z 0100/0124 17012KT 3SM -RA BR OVC006
     FM010700 23007KT 3SM BR OVC005
     FM011100 32014KT 5SM BR OVC008
     FM011300 34017G24KT P6SM BKN015
     FM011600 35022G31KT P6SM BKN025
     FM011900 35022G32KT P6SM SCT030=

USA.gov is the U.S. government's official web portal to all federal, state and local government web resources and services.